Time;durP1;ratioP1;P1;durP2;ratioP2;P2;SDS_P1;SDS_P2;PMS_P1;PMS_P2;Temp;Humidity;BMP_temperature;BMP_pressure;BME280_temperature;BME280_humidity;BME280_pressure;Samples;Min_cycle;Max_cycle;Signal;HPM_P1;HPM_P2
2023/11/03 00:01:28;;;;;;;2.58;1.00;;;9.20;99.90;;;;;;4968381;28;20050;-83
2023/11/03 00:03:54;;;;;;;1.98;1.13;;;9.30;99.90;;;;;;4975993;28;20053;-84
2023/11/03 00:06:21;;;;;;;3.25;1.20;;;9.30;99.90;;;;;;4975396;28;20042;-84
2023/11/03 00:08:46;;;;;;;5.30;0.95;;;9.70;99.90;;;;;;4975967;28;20468;-83
2023/11/03 00:11:12;;;;;;;3.70;1.25;;;9.20;99.90;;;;;;4976183;28;20034;-84
2023/11/03 00:13:37;;;;;;;3.15;0.98;;;9.20;99.90;;;;;;4974802;28;20030;-84
2023/11/03 00:16:03;;;;;;;4.45;1.13;;;9.20;99.90;;;;;;4976034;28;20355;-83
2023/11/03 00:18:29;;;;;;;6.65;0.88;;;9.20;99.90;;;;;;4975733;28;20054;-83
2023/11/03 00:20:55;;;;;;;4.20;0.90;;;9.20;99.90;;;;;;4975026;28;20023;-83
2023/11/03 00:23:24;;;;;;;4.70;1.55;;;9.10;99.90;;;;;;4975674;28;20034;-83
2023/11/03 00:25:50;;;;;;;3.08;0.80;;;9.10;99.90;;;;;;4975391;28;20053;-83
2023/11/03 00:28:15;;;;;;;7.38;1.30;;;9.20;99.90;;;;;;4969632;28;20050;-83
2023/11/03 00:30:41;;;;;;;5.55;1.50;;;9.10;99.90;;;;;;4964187;28;20047;-84
2023/11/03 00:33:08;;;;;;;4.82;0.90;;;9.10;99.90;;;;;;4958691;28;20072;-83
2023/11/03 00:35:34;;;;;;;3.30;0.98;;;9.10;99.90;;;;;;4964649;28;20035;-83
2023/11/03 00:38:00;;;;;;;2.88;1.00;;;9.20;99.90;;;;;;4956064;28;20475;-84
2023/11/03 00:40:26;;;;;;;4.32;1.17;;;9.10;99.90;;;;;;4955305;28;20033;-84
2023/11/03 00:42:51;;;;;;;2.47;0.88;;;9.20;99.90;;;;;;4956098;28;20349;-83
2023/11/03 00:45:17;;;;;;;2.80;0.88;;;9.20;99.90;;;;;;4959692;28;20034;-84
2023/11/03 00:47:43;;;;;;;3.60;0.85;;;9.10;99.90;;;;;;4963508;28;20027;-82
2023/11/03 00:50:09;;;;;;;5.50;1.00;;;9.20;99.90;;;;;;4955020;28;20038;-83
2023/11/03 00:52:35;;;;;;;1.13;0.75;;;9.20;99.90;;;;;;4955609;28;20023;-83
2023/11/03 00:55:01;;;;;;;2.90;1.00;;;9.20;99.90;;;;;;4955202;28;20066;-83
2023/11/03 00:57:26;;;;;;;2.95;1.00;;;9.20;99.90;;;;;;4955994;28;20065;-83
2023/11/03 00:59:52;;;;;;;5.25;0.90;;;9.20;99.90;;;;;;4967064;28;20071;-83
2023/11/03 01:02:18;;;;;;;1.83;0.70;;;9.20;99.90;;;;;;4954884;28;20051;-83
2023/11/03 01:04:44;;;;;;;2.08;1.10;;;9.20;99.90;;;;;;4955817;28;20039;-84
2023/11/03 01:07:09;;;;;;;3.60;1.05;;;9.20;99.90;;;;;;4955877;28;20027;-84
2023/11/03 01:09:35;;;;;;;4.03;1.02;;;9.20;99.90;;;;;;4966501;28;20026;-84
2023/11/03 01:12:01;;;;;;;1.83;0.75;;;9.20;99.90;;;;;;4956053;28;20360;-83
2023/11/03 01:14:27;;;;;;;3.95;1.23;;;9.20;99.90;;;;;;4955467;28;20388;-84
2023/11/03 01:16:53;;;;;;;3.80;1.30;;;9.20;99.90;;;;;;4954920;28;20023;-83
2023/11/03 01:19:21;;;;;;;6.63;1.30;;;9.20;99.90;;;;;;4955574;28;20109;-83
2023/11/03 01:21:48;;;;;;;4.35;0.90;;;9.30;99.90;;;;;;4959025;28;20070;-83
2023/11/03 01:24:13;;;;;;;7.75;1.33;;;9.20;99.90;;;;;;4962337;28;20039;-83
2023/11/03 01:26:39;;;;;;;2.03;1.00;;;9.30;99.90;;;;;;4954964;28;20477;-83
2023/11/03 01:29:05;;;;;;;3.50;0.88;;;9.30;99.90;;;;;;4955487;28;20528;-83
2023/11/03 01:31:32;;;;;;;5.70;1.17;;;9.30;99.90;;;;;;4954231;28;20098;-83
2023/11/03 01:33:58;;;;;;;5.45;1.17;;;9.30;99.90;;;;;;4958880;28;20105;-84
2023/11/03 01:36:24;;;;;;;1.85;1.30;;;9.30;99.90;;;;;;4962551;28;20440;-84
2023/11/03 01:38:49;;;;;;;3.20;1.00;;;9.30;99.90;;;;;;4954729;28;20031;-84
2023/11/03 01:41:18;;;;;;;4.57;1.40;;;9.30;99.90;;;;;;4955287;28;20015;-83
2023/11/03 01:44:06;;;;;;;3.45;1.27;;;9.30;99.90;;;;;;4955555;28;20027;-84
2023/11/03 01:46:32;;;;;;;5.03;1.10;;;9.40;99.90;;;;;;4963098;28;20055;-83
2023/11/03 01:48:58;;;;;;;5.85;1.10;;;9.30;99.90;;;;;;4955618;28;20038;-83
2023/11/03 01:51:25;;;;;;;3.45;1.30;;;9.30;99.90;;;;;;4954030;28;20024;-84
2023/11/03 01:53:50;;;;;;;4.35;1.33;;;9.30;99.90;;;;;;4955047;28;20030;-84
2023/11/03 01:56:16;;;;;;;4.82;1.20;;;9.30;99.90;;;;;;4962506;28;20027;-84
2023/11/03 01:58:42;;;;;;;3.08;1.48;;;9.30;99.90;;;;;;4957749;28;20050;-83
2023/11/03 02:01:09;;;;;;;6.85;1.90;;;9.30;99.90;;;;;;4954409;28;20029;-84
2023/11/03 02:03:34;;;;;;;4.72;1.23;;;9.30;99.90;;;;;;4954658;28;20033;-84
2023/11/03 02:06:00;;;;;;;6.03;1.65;;;9.30;99.90;;;;;;4954087;28;20027;-84
2023/11/03 02:08:26;;;;;;;7.40;1.65;;;9.30;99.90;;;;;;4960897;28;20031;-83
2023/11/03 02:10:51;;;;;;;3.78;1.63;;;9.30;99.90;;;;;;4960197;28;20031;-85
2023/11/03 02:13:17;;;;;;;6.25;1.55;;;9.30;99.90;;;;;;4954337;28;20035;-84
2023/11/03 02:15:42;;;;;;;2.60;1.52;;;9.30;99.90;;;;;;4954598;28;20030;-84
2023/11/03 02:18:09;;;;;;;7.38;1.48;;;9.30;99.90;;;;;;4954612;28;20035;-84
2023/11/03 02:20:35;;;;;;;4.75;1.20;;;9.30;99.90;;;;;;4961648;28;20035;-84
2023/11/03 02:23:01;;;;;;;4.05;1.50;;;9.30;99.90;;;;;;4958636;28;20388;-84
2023/11/03 02:25:27;;;;;;;5.75;1.67;;;9.40;99.90;;;;;;4954271;28;20035;-84
2023/11/03 02:27:52;;;;;;;5.05;1.90;;;9.30;99.90;;;;;;4954656;28;20027;-84
2023/11/03 02:30:18;;;;;;;2.90;1.25;;;9.30;99.90;;;;;;4960344;28;20515;-84
2023/11/03 02:32:44;;;;;;;7.55;1.45;;;9.40;99.90;;;;;;4959434;28;20667;-84
2023/11/03 02:35:09;;;;;;;8.32;1.45;;;9.30;99.90;;;;;;4954494;28;20077;-83
2023/11/03 02:37:35;;;;;;;6.50;1.30;;;9.40;99.90;;;;;;4954036;28;20058;-84
2023/11/03 02:40:01;;;;;;;6.03;1.70;;;9.40;99.90;;;;;;4954758;28;20036;-83
2023/11/03 02:42:26;;;;;;;5.40;1.70;;;9.40;99.90;;;;;;4965084;28;20034;-84
2023/11/03 02:44:52;;;;;;;5.22;1.50;;;9.40;99.90;;;;;;4954433;28;20058;-84
2023/11/03 02:47:17;;;;;;;5.63;1.20;;;9.40;99.90;;;;;;4953821;28;20024;-84
2023/11/03 02:49:43;;;;;;;5.78;1.35;;;9.40;99.90;;;;;;4954244;28;20023;-85
2023/11/03 02:52:08;;;;;;;4.15;1.50;;;9.40;99.90;;;;;;4954875;28;20110;-84
2023/11/03 02:54:34;;;;;;;4.82;1.25;;;9.40;99.90;;;;;;4964798;28;20387;-84
2023/11/03 02:56:59;;;;;;;8.07;2.42;;;9.40;99.90;;;;;;4954227;28;20051;-83
2023/11/03 02:59:25;;;;;;;8.05;1.98;;;9.30;99.90;;;;;;4954118;28;20050;-83
2023/11/03 03:01:50;;;;;;;9.43;1.55;;;9.30;99.90;;;;;;4953736;28;20030;-84
2023/11/03 03:04:16;;;;;;;8.27;1.65;;;9.30;99.90;;;;;;4960875;28;20030;-83
2023/11/03 03:06:45;;;;;;;8.23;1.75;;;9.30;99.90;;;;;;4958941;28;20039;-83
2023/11/03 03:09:11;;;;;;;5.35;1.20;;;9.30;99.90;;;;;;4953371;28;20066;-83
2023/11/03 03:11:37;;;;;;;4.80;1.33;;;9.30;99.90;;;;;;4954033;28;20027;-83
2023/11/03 03:14:02;;;;;;;3.53;1.30;;;9.20;99.90;;;;;;4955863;28;20493;-83
2023/11/03 03:16:28;;;;;;;5.53;1.08;;;9.30;99.90;;;;;;4956877;28;20054;-84
2023/11/03 03:18:54;;;;;;;7.75;1.73;;;9.30;99.90;;;;;;4967435;28;20050;-84
2023/11/03 03:21:19;;;;;;;7.25;1.40;;;9.20;99.90;;;;;;4959107;28;20027;-84
2023/11/03 03:23:46;;;;;;;8.38;1.10;;;9.20;99.90;;;;;;4957248;28;20082;-83
2023/11/03 03:26:12;;;;;;;3.80;0.90;;;9.20;99.90;;;;;;4957658;28;20031;-84
2023/11/03 03:28:37;;;;;;;11.02;1.63;;;9.10;99.90;;;;;;4957021;28;20023;-84
2023/11/03 03:31:03;;;;;;;15.10;1.90;;;9.10;99.90;;;;;;4968121;28;20101;-83
2023/11/03 03:33:29;;;;;;;6.25;1.50;;;9.10;99.90;;;;;;4957285;28;20376;-84
2023/11/03 03:35:54;;;;;;;9.57;1.70;;;9.00;99.90;;;;;;4956566;28;20023;-84
2023/11/03 03:38:20;;;;;;;8.27;1.23;;;9.00;99.90;;;;;;4957062;28;20031;-84
2023/11/03 03:40:45;;;;;;;11.68;1.25;;;9.90;99.90;;;;;;4957749;28;20022;-83
2023/11/03 03:43:11;;;;;;;11.07;1.52;;;9.10;99.90;;;;;;4969105;28;20030;-83
2023/11/03 03:45:36;;;;;;;7.95;2.03;;;9.10;99.90;;;;;;4976285;28;20509;-85
2023/11/03 03:48:02;;;;;;;10.80;1.33;;;9.10;99.90;;;;;;4976364;28;20027;-85
2023/11/03 03:50:28;;;;;;;16.45;2.15;;;9.10;99.90;;;;;;4975424;28;20030;-85
2023/11/03 03:52:54;;;;;;;13.57;1.63;;;9.00;99.90;;;;;;4973833;28;20027;-84
2023/11/03 03:55:19;;;;;;;5.53;1.40;;;9.00;99.90;;;;;;4967898;28;20026;-85
2023/11/03 03:57:45;;;;;;;13.23;2.45;;;9.00;99.90;;;;;;4955978;28;20101;-84
2023/11/03 04:00:11;;;;;;;16.90;1.92;;;9.00;99.90;;;;;;4956998;28;20063;-84
2023/11/03 04:02:37;;;;;;;12.55;1.63;;;9.00;99.90;;;;;;4956548;28;20030;-84
2023/11/03 04:05:02;;;;;;;5.80;1.92;;;9.00;99.90;;;;;;4964189;28;20027;-85
2023/11/03 04:07:28;;;;;;;11.48;1.55;;;9.10;99.90;;;;;;4960451;28;20031;-84
2023/11/03 04:09:54;;;;;;;7.75;1.40;;;9.10;99.90;;;;;;4956928;28;20031;-84
2023/11/03 04:12:19;;;;;;;13.05;1.90;;;9.10;99.90;;;;;;4956097;28;20038;-86
2023/11/03 04:14:45;;;;;;;9.43;1.65;;;9.20;99.90;;;;;;4959540;28;20529;-84
2023/11/03 04:17:10;;;;;;;14.43;1.75;;;9.10;99.90;;;;;;4966236;28;20023;-84
2023/11/03 04:19:36;;;;;;;11.82;2.03;;;9.10;99.90;;;;;;4955833;28;20040;-84
2023/11/03 04:22:01;;;;;;;8.93;1.50;;;9.20;99.90;;;;;;4957197;28;20028;-85
2023/11/03 04:24:27;;;;;;;9.65;1.85;;;9.20;99.90;;;;;;4955939;28;20503;-84
2023/11/03 04:26:54;;;;;;;12.70;1.75;;;9.20;99.90;;;;;;4959220;28;20023;-84
2023/11/03 04:29:19;;;;;;;15.10;1.80;;;9.10;99.90;;;;;;4964823;28;20031;-85
2023/11/03 04:31:45;;;;;;;8.52;1.73;;;9.20;99.90;;;;;;4956138;28;20151;-85
2023/11/03 04:34:10;;;;;;;9.43;1.42;;;9.20;99.90;;;;;;4955896;28;20038;-84
2023/11/03 04:36:36;;;;;;;10.93;1.48;;;9.20;99.90;;;;;;4956021;28;20360;-85
2023/11/03 04:39:02;;;;;;;11.27;1.70;;;9.20;99.90;;;;;;4963305;28;20039;-85
2023/11/03 04:41:28;;;;;;;7.07;1.15;;;9.20;99.90;;;;;;4959625;28;20384;-85
2023/11/03 04:43:54;;;;;;;6.63;1.20;;;9.20;99.90;;;;;;4956072;28;20033;-84
2023/11/03 04:46:20;;;;;;;6.68;1.60;;;9.20;99.90;;;;;;4955423;28;20042;-84
2023/11/03 04:48:45;;;;;;;3.38;1.00;;;9.20;99.90;;;;;;4961771;28;20027;-84
2023/11/03 04:51:11;;;;;;;10.10;1.83;;;9.20;99.90;;;;;;4962162;28;20028;-84
2023/11/03 04:53:37;;;;;;;8.05;1.45;;;9.20;99.90;;;;;;4955001;28;20043;-84
2023/11/03 04:56:03;;;;;;;6.55;2.22;;;9.20;99.90;;;;;;4956280;28;20054;-84
2023/11/03 04:58:29;;;;;;;8.75;1.52;;;9.20;99.90;;;;;;4955407;28;20045;-85
2023/11/03 05:00:54;;;;;;;5.03;1.30;;;9.20;99.90;;;;;;4958307;28;20026;-84
2023/11/03 05:03:21;;;;;;;4.68;1.20;;;9.20;99.90;;;;;;4964142;28;20043;-84
2023/11/03 05:05:47;;;;;;;10.85;1.58;;;9.20;99.90;;;;;;4955871;28;20020;-85
2023/11/03 05:08:13;;;;;;;10.20;1.58;;;9.30;99.90;;;;;;4955060;28;20039;-84
2023/11/03 05:10:39;;;;;;;10.95;1.77;;;9.20;99.90;;;;;;4956370;28;20368;-84
2023/11/03 05:13:05;;;;;;;11.32;2.00;;;9.30;99.90;;;;;;4966075;28;20086;-84
2023/11/03 05:15:30;;;;;;;10.48;1.65;;;9.20;99.90;;;;;;4954343;28;20027;-85
2023/11/03 05:17:56;;;;;;;11.45;2.15;;;9.20;99.90;;;;;;4955197;28;20078;-83
2023/11/03 05:20:22;;;;;;;7.55;1.60;;;9.30;99.90;;;;;;4955406;28;20027;-83
2023/11/03 05:22:48;;;;;;;13.65;2.53;;;9.20;99.90;;;;;;4959918;28;20035;-83
2023/11/03 05:25:13;;;;;;;11.27;2.35;;;9.20;99.90;;;;;;4961790;28;20125;-84
2023/11/03 05:27:39;;;;;;;12.65;2.25;;;9.20;99.90;;;;;;4955222;28;20023;-85
2023/11/03 05:30:06;;;;;;;7.50;2.00;;;9.20;99.90;;;;;;4954259;28;20051;-85
2023/11/03 05:32:33;;;;;;;14.18;2.20;;;9.20;99.90;;;;;;4958265;28;20110;-85
2023/11/03 05:34:59;;;;;;;11.07;2.78;;;9.20;99.90;;;;;;4963887;28;20035;-84
2023/11/03 05:37:25;;;;;;;10.13;2.10;;;9.20;99.90;;;;;;4953375;28;20043;-84
2023/11/03 05:39:51;;;;;;;13.93;1.95;;;9.20;99.90;;;;;;4954933;28;20031;-84
2023/11/03 05:42:16;;;;;;;12.63;2.72;;;9.20;99.90;;;;;;4955496;28;20027;-84
2023/11/03 05:44:42;;;;;;;8.48;2.05;;;9.20;99.90;;;;;;4966077;28;20034;-85
2023/11/03 05:47:07;;;;;;;8.90;2.22;;;9.20;99.90;;;;;;4954984;28;20037;-85
2023/11/03 05:49:33;;;;;;;6.82;1.85;;;9.20;99.90;;;;;;4954377;28;20030;-83
2023/11/03 05:51:59;;;;;;;8.18;2.50;;;9.20;99.90;;;;;;4954888;28;20046;-84
2023/11/03 05:54:24;;;;;;;8.15;2.38;;;9.30;99.90;;;;;;4954823;28;20471;-83
2023/11/03 05:56:50;;;;;;;15.10;3.40;;;9.30;99.90;;;;;;4964049;28;20023;-84
2023/11/03 05:59:15;;;;;;;9.52;2.38;;;9.30;99.90;;;;;;4956582;28;20039;-84
2023/11/03 06:01:42;;;;;;;12.50;2.30;;;9.30;99.90;;;;;;4954806;28;20119;-84
2023/11/03 06:04:07;;;;;;;14.95;2.28;;;9.40;99.90;;;;;;4954231;28;20027;-83
2023/11/03 06:06:33;;;;;;;13.60;2.30;;;9.40;99.90;;;;;;4958604;28;20369;-85
2023/11/03 06:08:58;;;;;;;13.27;2.78;;;9.40;99.90;;;;;;4962472;28;20432;-84
2023/11/03 06:11:24;;;;;;;11.18;2.80;;;9.40;99.90;;;;;;4953730;28;20087;-85
2023/11/03 06:13:49;;;;;;;11.18;3.15;;;9.40;99.90;;;;;;4954754;28;20023;-84
2023/11/03 06:16:20;;;;;;;12.32;3.08;;;9.40;99.90;;;;;;4958053;28;20478;-85
2023/11/03 06:18:46;;;;;;;14.75;3.60;;;9.40;99.90;;;;;;4962508;28;20144;-84
2023/11/03 06:21:11;;;;;;;6.93;2.97;;;9.30;99.90;;;;;;4954843;28;20114;-85
2023/11/03 06:23:37;;;;;;;15.95;3.55;;;9.30;99.90;;;;;;4986305;28;20483;-85
2023/11/03 06:26:06;;;;;;;15.98;2.95;;;9.30;99.90;;;;;;4992343;28;20022;-85
2023/11/03 06:28:33;;;;;;;14.43;2.70;;;9.30;99.90;;;;;;4981586;28;20506;-84
2023/11/03 06:30:58;;;;;;;6.13;2.53;;;9.30;99.90;;;;;;4963360;28;20051;-84
2023/11/03 06:33:24;;;;;;;12.38;3.17;;;9.30;99.90;;;;;;4953540;28;20475;-83
2023/11/03 06:35:50;;;;;;;8.13;2.78;;;9.30;99.90;;;;;;4955561;28;20049;-84
2023/11/03 06:38:16;;;;;;;14.73;3.08;;;9.30;99.90;;;;;;4955687;28;20071;-84
2023/11/03 06:40:42;;;;;;;11.02;3.25;;;9.30;99.90;;;;;;4953500;28;20122;-84
2023/11/03 06:43:07;;;;;;;13.55;3.08;;;9.30;99.90;;;;;;4954548;28;20049;-84
2023/11/03 06:45:33;;;;;;;15.30;3.13;;;9.30;99.90;;;;;;4954218;28;20471;-86
2023/11/03 06:47:59;;;;;;;15.05;2.55;;;9.30;99.90;;;;;;4960663;28;20019;-85
2023/11/03 06:50:25;;;;;;;13.55;3.33;;;9.30;99.90;;;;;;4977180;28;20114;-86
2023/11/03 06:52:50;;;;;;;11.82;2.35;;;9.30;99.90;;;;;;4971540;28;20452;-83
2023/11/03 06:55:17;;;;;;;17.55;2.72;;;9.30;99.90;;;;;;4961944;28;20031;-83
2023/11/03 06:57:43;;;;;;;10.05;2.70;;;9.30;99.90;;;;;;4957471;28;20431;-85
2023/11/03 07:00:12;;;;;;;12.23;2.53;;;9.30;99.90;;;;;;4972261;28;20062;-83
2023/11/03 07:02:38;;;;;;;14.02;2.45;;;9.30;99.90;;;;;;4976817;28;20106;-84
2023/11/03 07:05:05;;;;;;;10.95;2.83;;;9.30;99.90;;;;;;4966905;28;20066;-83
2023/11/03 07:07:31;;;;;;;15.15;3.65;;;9.40;99.90;;;;;;4957013;28;20034;-84
2023/11/03 07:09:58;;;;;;;21.92;3.45;;;9.30;99.90;;;;;;4961121;28;20030;-83
2023/11/03 07:12:24;;;;;;;18.15;3.95;;;9.30;99.90;;;;;;4976341;28;20055;-83
2023/11/03 07:14:51;;;;;;;16.70;2.75;;;9.30;99.90;;;;;;4970777;28;20426;-86
2023/11/03 07:17:16;;;;;;;13.07;2.30;;;9.30;99.90;;;;;;4961586;28;20480;-85
2023/11/03 07:19:42;;;;;;;11.70;2.55;;;9.40;99.90;;;;;;4957294;28;20039;-86
2023/11/03 07:22:08;;;;;;;10.95;2.65;;;9.40;99.90;;;;;;4957049;28;20023;-83
2023/11/03 07:24:34;;;;;;;13.35;3.58;;;9.40;99.90;;;;;;4956897;28;20032;-83
2023/11/03 07:26:59;;;;;;;10.90;2.95;;;9.40;99.90;;;;;;4957131;28;20082;-83
2023/11/03 07:29:25;;;;;;;16.50;2.63;;;9.40;99.90;;;;;;4956197;28;20380;-86
2023/11/03 07:31:50;;;;;;;15.35;2.83;;;9.40;99.90;;;;;;4963915;28;20035;-84
2023/11/03 07:34:18;;;;;;;14.00;2.63;;;9.40;99.90;;;;;;4971150;28;20033;-83
2023/11/03 07:36:44;;;;;;;15.25;2.45;;;9.40;99.90;;;;;;4975517;28;20041;-83
2023/11/03 07:39:11;;;;;;;17.35;3.53;;;9.40;99.90;;;;;;4976529;28;20031;-86
2023/11/03 07:41:36;;;;;;;19.98;3.30;;;9.40;99.90;;;;;;4976265;28;20034;-84
2023/11/03 07:44:03;;;;;;;16.98;2.70;;;9.40;99.90;;;;;;4975813;28;20394;-86
2023/11/03 07:46:33;;;;;;;9.90;2.50;;;9.40;99.90;;;;;;4976293;28;20027;-85
2023/11/03 07:49:04;;;;;;;17.50;2.88;;;9.50;99.90;;;;;;4975679;28;20505;-83
2023/11/03 07:51:30;;;;;;;13.75;2.83;;;9.40;99.90;;;;;;4976302;28;20034;-83
2023/11/03 07:53:56;;;;;;;25.33;3.60;;;9.50;99.90;;;;;;4974409;28;20117;-84
2023/11/03 07:56:22;;;;;;;15.20;3.38;;;9.50;99.90;;;;;;4985454;28;20022;-83
2023/11/03 07:58:48;;;;;;;17.63;2.20;;;9.50;99.90;;;;;;4978994;28;20089;-85
2023/11/03 08:01:14;;;;;;;17.80;3.72;;;9.50;99.90;;;;;;4985387;28;20018;-85
2023/11/03 08:03:40;;;;;;;16.92;2.58;;;9.50;99.90;;;;;;4979440;28;20089;-85
2023/11/03 08:06:06;;;;;;;13.85;3.28;;;9.50;99.90;;;;;;4984353;28;20019;-84
2023/11/03 08:08:32;;;;;;;9.30;2.13;;;9.60;99.90;;;;;;4985210;28;20081;-85
2023/11/03 08:10:58;;;;;;;15.30;2.40;;;9.60;99.90;;;;;;4979358;28;20051;-84
2023/11/03 08:13:24;;;;;;;15.38;2.72;;;9.60;99.90;;;;;;4983580;28;20056;-85
2023/11/03 08:15:50;;;;;;;22.02;3.85;;;9.60;99.90;;;;;;4984313;28;20026;-86
2023/11/03 08:18:18;;;;;;;16.52;2.92;;;9.60;99.90;;;;;;4977216;28;20034;-86
2023/11/03 08:20:43;;;;;;;21.45;3.28;;;9.60;99.90;;;;;;4969671;28;20578;-85
2023/11/03 08:23:14;;;;;;;11.20;2.17;;;9.50;99.90;;;;;;4956601;28;20031;-85
2023/11/03 08:25:40;;;;;;;16.45;2.88;;;9.60;99.90;;;;;;4960483;28;20042;-86
2023/11/03 08:28:06;;;;;;;20.42;3.88;;;9.60;99.90;;;;;;4964546;28;20383;-86
2023/11/03 08:30:32;;;;;;;14.93;3.17;;;9.60;99.90;;;;;;4975160;28;20563;-85
2023/11/03 08:32:58;;;;;;;15.82;2.90;;;9.60;99.90;;;;;;4974493;28;20110;-86
2023/11/03 08:35:23;;;;;;;19.90;3.65;;;9.60;99.90;;;;;;4975077;28;20023;-87
2023/11/03 08:37:53;;;;;;;19.55;2.70;;;9.70;99.90;;;;;;4960048;28;20032;-86
2023/11/03 08:40:21;;;;;;;18.13;3.35;;;9.70;99.90;;;;;;4962077;28;20482;-86
2023/11/03 08:42:47;;;;;;;18.52;3.33;;;9.60;99.90;;;;;;4985338;28;20035;-84
2023/11/03 08:45:13;;;;;;;17.17;2.67;;;9.60;99.90;;;;;;4978120;28;20049;-85
2023/11/03 08:47:41;;;;;;;14.15;3.17;;;9.70;99.90;;;;;;4979371;28;20019;-86
2023/11/03 08:50:11;;;;;;;21.92;3.78;;;9.70;99.90;;;;;;4985959;28;20080;-91
2023/11/03 08:52:37;;;;;;;15.57;2.58;;;9.80;99.90;;;;;;4983123;28;20022;-92
2023/11/03 08:55:07;;;;;;;12.43;2.83;;;10.00;99.90;;;;;;4983620;28;20033;-87
2023/11/03 08:57:37;;;;;;;12.55;2.22;;;9.80;99.90;;;;;;4957012;28;20038;-85
2023/11/03 09:00:08;;;;;;;14.25;3.45;;;10.50;99.90;;;;;;4961703;28;20090;-90
2023/11/03 09:02:44;;;;;;;9.98;3.20;;;9.80;99.90;;;;;;4961976;28;20051;-92
2023/11/03 09:05:11;;;;;;;18.58;3.20;;;9.80;99.90;;;;;;4967293;28;20118;-89
2023/11/03 09:07:38;;;;;;;23.00;3.90;;;9.90;99.90;;;;;;4957563;28;20079;-92
2023/11/03 09:10:06;;;;;;;16.13;3.20;;;9.90;99.90;;;;;;4961743;28;20027;-88
2023/11/03 09:12:34;;;;;;;18.65;3.17;;;9.90;99.90;;;;;;4954856;28;20058;-88
2023/11/03 09:15:03;;;;;;;17.13;3.42;;;9.90;99.90;;;;;;4957738;28;20020;-90
2023/11/03 09:17:31;;;;;;;13.60;3.33;;;9.90;99.90;;;;;;4958850;28;20042;-86
2023/11/03 09:19:58;;;;;;;18.95;3.42;;;10.00;99.90;;;;;;4968294;28;20137;-87
2023/11/03 09:22:25;;;;;;;12.05;3.10;;;10.20;99.90;;;;;;4966894;28;20173;-93
2023/11/03 09:24:53;;;;;;;22.40;3.38;;;10.00;99.90;;;;;;4959556;28;20113;-89
2023/11/03 09:27:19;;;;;;;14.82;2.70;;;10.00;99.90;;;;;;4964257;28;20114;-91
2023/11/03 09:29:46;;;;;;;15.98;3.30;;;10.00;99.90;;;;;;4968926;28;20510;-86
2023/11/03 09:32:12;;;;;;;12.25;3.08;;;10.10;99.90;;;;;;4972817;28;20027;-91
2023/11/03 09:34:38;;;;;;;15.55;2.70;;;10.10;99.90;;;;;;4977163;28;20151;-91
2023/11/03 09:37:04;;;;;;;12.65;3.13;;;10.00;99.90;;;;;;4985021;28;20023;-90
2023/11/03 09:39:30;;;;;;;18.35;3.90;;;10.10;99.90;;;;;;4963039;28;20502;-90
2023/11/03 09:42:03;;;;;;;12.80;2.80;;;10.10;99.90;;;;;;4967125;28;20039;-91
2023/11/03 09:44:34;;;;;;;16.83;2.72;;;10.10;99.90;;;;;;4960549;28;20027;-88
2023/11/03 09:47:02;;;;;;;14.75;3.30;;;10.10;99.90;;;;;;4960964;28;20031;-91
2023/11/03 09:49:28;;;;;;;10.45;3.13;;;10.10;99.90;;;;;;4955234;28;20027;-92
2023/11/03 09:52:02;;;;;;;20.45;3.83;;;10.10;99.90;;;;;;4977144;28;20031;-87
2023/11/03 09:54:30;;;;;;;17.50;2.95;;;10.00;99.90;;;;;;4983478;28;20049;-86
2023/11/03 09:56:56;;;;;;;11.95;2.67;;;10.10;99.90;;;;;;4974936;28;20027;-88
2023/11/03 09:59:21;;;;;;;13.55;3.30;;;10.10;99.90;;;;;;4977708;28;20035;-83
2023/11/03 10:01:47;;;;;;;20.60;2.85;;;10.10;99.90;;;;;;4977018;28;20383;-90
2023/11/03 10:04:13;;;;;;;17.23;3.70;;;10.10;99.90;;;;;;4984919;28;20026;-86
2023/11/03 10:06:38;;;;;;;19.25;2.92;;;10.10;99.90;;;;;;4979070;28;20081;-87
2023/11/03 10:09:12;;;;;;;16.80;3.72;;;10.10;99.90;;;;;;4982525;28;20081;-88
2023/11/03 10:11:40;;;;;;;16.85;3.08;;;10.20;99.90;;;;;;4979094;28;20031;-87
2023/11/03 10:14:06;;;;;;;18.42;4.40;;;10.10;99.90;;;;;;4994713;28;20086;-90
2023/11/03 10:16:31;;;;;;;15.52;3.00;;;10.20;99.90;;;;;;4978229;28;20054;-87
2023/11/03 10:18:57;;;;;;;17.85;3.58;;;10.20;99.90;;;;;;4990107;28;20039;-93
2023/11/03 10:21:23;;;;;;;16.00;3.15;;;10.20;99.90;;;;;;4999943;28;20031;-94
2023/11/03 10:23:49;;;;;;;17.67;3.25;;;10.20;99.90;;;;;;5001886;28;20022;-93
2023/11/03 10:26:14;;;;;;;10.27;2.92;;;10.20;99.90;;;;;;4987490;28;20061;-89
2023/11/03 10:28:44;;;;;;;9.63;2.63;;;10.30;99.90;;;;;;4967810;28;20394;-89
2023/11/03 10:31:11;;;;;;;16.13;3.13;;;10.80;99.90;;;;;;4970879;28;20039;-90
2023/11/03 10:33:36;;;;;;;13.15;2.83;;;10.30;99.90;;;;;;4961354;28;20468;-89
2023/11/03 10:36:02;;;;;;;12.05;2.75;;;10.30;99.90;;;;;;4971103;28;20034;-90
2023/11/03 10:38:28;;;;;;;17.05;3.28;;;10.30;99.90;;;;;;4978881;28;20347;-90
2023/11/03 10:40:56;;;;;;;10.85;2.55;;;10.30;99.90;;;;;;4969307;28;20022;-89
2023/11/03 10:43:25;;;;;;;17.33;3.35;;;10.40;99.90;;;;;;4974433;28;20070;-89
2023/11/03 10:45:56;;;;;;;12.13;2.67;;;10.40;99.90;;;;;;4968665;28;20467;-89
2023/11/03 10:48:31;;;;;;;8.55;2.63;;;10.50;99.90;;;;;;4974258;28;20109;-89
2023/11/03 10:51:19;;;;;;;14.45;2.85;;;10.50;99.90;;;;;;4979929;28;20023;-90
2023/11/03 10:54:20;;;;;;;13.50;2.72;;;10.60;99.90;;;;;;4974812;28;20031;-90
2023/11/03 10:56:46;;;;;;;13.00;3.05;;;10.70;99.90;;;;;;4979163;28;20541;-91
2023/11/03 10:59:14;;;;;;;18.13;3.17;;;10.80;99.90;;;;;;4980767;28;20377;-90
2023/11/03 11:02:04;;;;;;;17.75;2.17;;;10.90;99.90;;;;;;4968119;28;20243;-91
2023/11/03 11:04:42;;;;;;;15.50;3.35;;;10.80;99.90;;;;;;4967022;28;20161;-88
2023/11/03 11:07:15;;;;;;;11.30;2.50;;;10.90;99.90;;;;;;4968470;28;20039;-88
2023/11/03 11:09:47;;;;;;;14.60;2.45;;;11.00;99.90;;;;;;4969676;28;20037;-89
2023/11/03 11:12:16;;;;;;;21.27;3.05;;;11.00;99.90;;;;;;4967221;28;20034;-88
2023/11/03 11:14:43;;;;;;;15.60;2.67;;;11.00;99.90;;;;;;4960364;28;20117;-90
2023/11/03 11:17:11;;;;;;;19.38;3.67;;;11.10;99.90;;;;;;4976817;28;20033;-87
2023/11/03 11:19:42;;;;;;;14.85;3.95;;;11.10;99.90;;;;;;4966288;28;20042;-85
2023/11/03 11:22:08;;;;;;;11.65;2.03;;;11.10;99.90;;;;;;4959478;28;20079;-86
2023/11/03 11:24:38;;;;;;;16.48;3.38;;;11.00;99.90;;;;;;4969654;28;20039;-86
2023/11/03 11:27:24;;;;;;;13.63;2.95;;;11.40;99.90;;;;;;4960226;28;20051;-86
2023/11/03 11:30:07;;;;;;;10.90;2.47;;;11.00;99.90;;;;;;4964184;28;20047;-86
2023/11/03 11:32:33;;;;;;;12.95;3.28;;;11.00;99.90;;;;;;4964300;28;20041;-86
2023/11/03 11:34:58;;;;;;;22.80;3.58;;;11.10;99.90;;;;;;4969228;28;20030;-86
2023/11/03 11:37:29;;;;;;;12.55;3.00;;;11.10;99.90;;;;;;4976229;28;20439;-86
2023/11/03 11:39:55;;;;;;;;;;;11.10;99.90;;;;;;4967098;28;20073;-86
2023/11/03 11:42:22;;;;;;;15.68;2.78;;;11.10;99.90;;;;;;4975551;28;19909;-86
2023/11/03 11:44:52;;;;;;;16.23;2.50;;;11.10;99.90;;;;;;4971294;28;20027;-86
2023/11/03 11:47:23;;;;;;;11.98;2.47;;;11.10;99.90;;;;;;4967509;28;20101;-87
2023/11/03 11:49:49;;;;;;;17.27;2.95;;;11.10;99.90;;;;;;4965788;28;20158;-86
2023/11/03 11:52:14;;;;;;;15.57;2.22;;;11.10;99.90;;;;;;4968385;28;20019;-87
2023/11/03 11:54:40;;;;;;;15.60;2.78;;;11.10;99.90;;;;;;4962659;28;20035;-87
2023/11/03 11:57:07;;;;;;;10.15;2.47;;;11.10;99.90;;;;;;4967268;28;20027;-85
2023/11/03 11:59:35;;;;;;;13.63;2.53;;;10.80;99.90;;;;;;4971167;28;20464;-88
2023/11/03 12:02:00;;;;;;;14.50;2.65;;;11.20;99.90;;;;;;4963667;28;20118;-87
2023/11/03 12:04:26;;;;;;;14.88;2.85;;;11.30;99.90;;;;;;4964947;28;20035;-87
2023/11/03 12:06:52;;;;;;;8.07;2.35;;;11.40;99.90;;;;;;4971807;28;20027;-87
2023/11/03 12:09:18;;;;;;;13.00;3.05;;;11.70;99.90;;;;;;4962465;28;20027;-86
2023/11/03 12:11:44;;;;;;;9.35;2.42;;;11.50;99.90;;;;;;4975642;28;20035;-89
2023/11/03 12:14:11;;;;;;;16.23;3.33;;;11.50;99.90;;;;;;4973713;28;20031;-86
2023/11/03 12:16:37;;;;;;;12.63;2.22;;;11.70;99.90;;;;;;4965064;28;20494;-89
2023/11/03 12:19:04;;;;;;;11.68;2.80;;;12.60;99.90;;;;;;4976036;28;20042;-87
2023/11/03 12:21:30;;;;;;;10.77;3.28;;;11.60;99.90;;;;;;4968128;28;20035;-87
2023/11/03 12:24:12;;;;;;;12.00;2.47;;;11.60;99.90;;;;;;4964788;28;20375;-87
2023/11/03 12:26:38;;;;;;;10.77;3.05;;;13.30;99.90;;;;;;4973915;28;20038;-87
2023/11/03 12:29:26;;;;;;;10.35;2.20;;;11.70;99.90;;;;;;4975732;28;20019;-87
2023/11/03 12:31:53;;;;;;;11.98;2.47;;;11.80;99.90;;;;;;4965540;28;20110;-89
2023/11/03 12:34:20;;;;;;;14.88;2.53;;;11.90;99.90;;;;;;4967577;28;20027;-87
2023/11/03 12:36:47;;;;;;;7.10;1.77;;;11.90;99.90;;;;;;4970761;28;20035;-87
2023/11/03 12:39:12;;;;;;;10.10;1.85;;;11.80;99.90;;;;;;4972103;28;20050;-87
2023/11/03 12:41:38;;;;;;;12.25;2.10;;;12.00;99.90;;;;;;4970610;28;20412;-88
2023/11/03 12:44:06;;;;;;;15.88;2.67;;;12.00;99.90;;;;;;4965874;28;20167;-88
2023/11/03 12:46:35;;;;;;;17.80;3.00;;;12.00;99.90;;;;;;4971000;28;20061;-87